createdAt,value
2022-08-26T00:01:56.711Z,100172.47
2022-08-26T00:04:25.774Z,100175.03
2022-08-26T00:06:56.631Z,100173.63
2022-08-26T00:09:25.477Z,100169.75
2022-08-26T00:11:54.104Z,100167.03
2022-08-26T00:14:24.173Z,100171.31
2022-08-26T00:16:55.929Z,100173.31
2022-08-26T00:19:23.677Z,100169.91
2022-08-26T00:21:51.366Z,100170.94
2022-08-26T00:24:20.446Z,100171.06
2022-08-26T00:26:48.587Z,100169.34
2022-08-26T00:29:17.329Z,100171.06
2022-08-26T00:31:45.715Z,100169.34
2022-08-26T00:34:14.274Z,100171.38
2022-08-26T00:36:44.296Z,100171.50
2022-08-26T00:39:11.624Z,100167.25
2022-08-26T00:41:40.348Z,100165.00
2022-08-26T00:44:09.014Z,100164.31
2022-08-26T00:46:46.800Z,100166.19
2022-08-26T00:49:19.913Z,100160.06
2022-08-26T00:51:55.790Z,100166.94
2022-08-26T00:54:26.965Z,100167.38
2022-08-26T00:57:15.933Z,100171.34
2022-08-26T00:59:54.987Z,100174.38
2022-08-26T01:02:24.869Z,100164.53
2022-08-26T01:04:56.353Z,100166.53
2022-08-26T01:07:30.158Z,100165.00
2022-08-26T01:10:01.058Z,100166.84
2022-08-26T01:12:32.465Z,100171.44
2022-08-26T01:15:00.251Z,100172.41
2022-08-26T01:17:27.272Z,100166.16
2022-08-26T01:20:03.807Z,100173.59
2022-08-26T01:22:41.911Z,100162.03
2022-08-26T01:25:11.993Z,100164.91
2022-08-26T01:27:39.497Z,100160.66
2022-08-26T01:30:07.407Z,100159.94
2022-08-26T01:32:36.332Z,100160.22
2022-08-26T01:35:07.509Z,100161.53
2022-08-26T01:37:39.099Z,100161.66
2022-08-26T01:40:12.573Z,100151.31
2022-08-26T01:42:41.290Z,100159.56
2022-08-26T01:45:16.824Z,100153.59
2022-08-26T01:47:44.656Z,100156.59
2022-08-26T01:50:18.011Z,100165.00
2022-08-26T01:52:57.124Z,100158.03
2022-08-26T01:55:33.478Z,100164.75
2022-08-26T01:58:06.314Z,100161.50
2022-08-26T02:00:35.944Z,100159.94
2022-08-26T02:03:17.249Z,100157.50
2022-08-26T02:06:00.335Z,100149.00
2022-08-26T02:08:32.841Z,100151.16
2022-08-26T02:11:00.407Z,100143.31
2022-08-26T02:13:30.196Z,100139.16
2022-08-26T02:16:00.656Z,100141.16
2022-08-26T02:18:30.478Z,100140.63
2022-08-26T02:20:57.730Z,100141.88
2022-08-26T02:23:25.325Z,100144.06
2022-08-26T02:26:17.958Z,100143.63
2022-08-26T02:28:56.424Z,100144.91
2022-08-26T02:31:24.754Z,100141.50
2022-08-26T02:33:51.938Z,100140.78
2022-08-26T02:36:28.715Z,100141.94
2022-08-26T02:38:56.349Z,100144.94
2022-08-26T02:41:23.692Z,100149.75
2022-08-26T02:43:51.768Z,100151.03
2022-08-26T02:46:28.040Z,100154.06
2022-08-26T02:48:57.884Z,100149.06
2022-08-26T02:51:25.354Z,100151.22
2022-08-26T02:53:52.813Z,100165.84
2022-08-26T02:56:20.015Z,100160.88
2022-08-26T02:58:48.651Z,100167.56
2022-08-26T03:01:23.123Z,100159.03
2022-08-26T03:03:50.680Z,100163.88
2022-08-26T03:06:18.508Z,100163.44
2022-08-26T03:08:46.702Z,100169.69
2022-08-26T03:11:14.565Z,100165.41
2022-08-26T03:13:42.476Z,100168.41
2022-08-26T03:16:09.610Z,100167.50
2022-08-26T03:18:37.022Z,100157.72
2022-08-26T03:21:10.850Z,100164.22
2022-08-26T03:23:39.736Z,100165.25
2022-08-26T03:26:07.897Z,100163.53
2022-08-26T03:29:04.631Z,100160.97
2022-08-26T03:31:34.157Z,100169.22
2022-08-26T03:34:01.334Z,100164.97
2022-08-26T03:36:30.005Z,100168.66
2022-08-26T03:38:57.769Z,100160.84
2022-08-26T03:41:24.919Z,100168.22
2022-08-26T03:43:52.706Z,100164.66
2022-08-26T03:46:21.626Z,100169.19
2022-08-26T03:48:48.850Z,100167.47
2022-08-26T03:51:19.177Z,100166.38
2022-08-26T03:53:48.364Z,100165.53
2022-08-26T03:56:15.553Z,100170.94
2022-08-26T03:58:44.609Z,100169.06
2022-08-26T04:01:16.278Z,100162.81
2022-08-26T04:03:59.983Z,100155.56
2022-08-26T04:06:44.888Z,100165.34
2022-08-26T04:09:21.206Z,100172.06
2022-08-26T04:11:50.754Z,100165.25
2022-08-26T04:14:23.921Z,100161.84
2022-08-26T04:16:53.189Z,100162.03
2022-08-26T04:19:23.443Z,100164.16
2022-08-26T04:21:53.278Z,100169.00
2022-08-26T04:24:23.758Z,100165.72
2022-08-26T04:26:53.992Z,100163.72
2022-08-26T04:29:28.162Z,100164.03
2022-08-26T04:31:56.227Z,100162.28
2022-08-26T04:34:24.578Z,100169.97
2022-08-26T04:36:54.786Z,100183.03
2022-08-26T04:39:22.181Z,100183.63
2022-08-26T04:41:51.599Z,100187.44
2022-08-26T04:44:21.401Z,100191.84
2022-08-26T04:46:51.003Z,100189.97
2022-08-26T04:49:18.527Z,100192.28
2022-08-26T04:51:46.341Z,100195.09
2022-08-26T04:54:17.544Z,100190.19
2022-08-26T04:56:48.568Z,100198.09
2022-08-26T04:59:18.195Z,100182.16
2022-08-26T05:01:50.394Z,100193.03
2022-08-26T05:04:20.954Z,100187.34
2022-08-26T05:06:49.277Z,100186.25
2022-08-26T05:09:18.578Z,100185.63
2022-08-26T05:11:48.342Z,100190.97
2022-08-26T05:14:19.410Z,100189.22
2022-08-26T05:16:47.960Z,100197.47
2022-08-26T05:19:19.019Z,100195.66
2022-08-26T05:21:48.532Z,100194.41
2022-08-26T05:24:17.420Z,100202.59
2022-08-26T05:26:45.440Z,100195.63
2022-08-26T05:29:13.114Z,100203.66
2022-08-26T05:31:40.609Z,100191.56
2022-08-26T05:34:08.443Z,100190.88
2022-08-26T05:36:37.024Z,100183.09
2022-08-26T05:39:07.574Z,100190.34
2022-08-26T05:41:44.855Z,100189.47
2022-08-26T05:44:16.403Z,100201.88
2022-08-26T05:46:44.871Z,100199.19
2022-08-26T05:49:15.886Z,100199.88
2022-08-26T05:51:47.746Z,100197.44
2022-08-26T05:54:21.737Z,100198.84
2022-08-26T05:56:50.874Z,100201.97
2022-08-26T05:59:24.374Z,100202.66
2022-08-26T06:01:55.168Z,100212.19
2022-08-26T06:04:29.270Z,100202.44
2022-08-26T06:06:58.042Z,100210.06
2022-08-26T06:09:27.043Z,100207.34
2022-08-26T06:11:54.300Z,100206.31
2022-08-26T06:14:21.815Z,100212.59
2022-08-26T06:16:49.064Z,100210.06
2022-08-26T06:19:17.701Z,100216.00
2022-08-26T06:21:47.543Z,100213.28
2022-08-26T06:24:39.554Z,100214.28
2022-08-26T06:27:11.444Z,100208.69
2022-08-26T06:29:40.939Z,100212.44
2022-08-26T06:32:08.766Z,100213.97
2022-08-26T06:34:36.194Z,100217.94
2022-08-26T06:37:03.768Z,100214.94
2022-08-26T06:39:32.115Z,100213.19
2022-08-26T06:42:00.576Z,100215.28
2022-08-26T06:44:31.410Z,100205.06
2022-08-26T06:47:02.093Z,100211.00
2022-08-26T06:49:29.112Z,100205.09
2022-08-26T06:51:59.680Z,100198.97
2022-08-26T06:54:30.400Z,100211.44
2022-08-26T06:56:59.103Z,100204.78
2022-08-26T06:59:26.649Z,100203.03
2022-08-26T07:01:54.862Z,100203.16
2022-08-26T07:04:23.684Z,100197.16
2022-08-26T07:06:53.830Z,100197.25
2022-08-26T07:09:24.170Z,100201.97
2022-08-26T07:11:57.328Z,100200.72
2022-08-26T07:14:34.797Z,100196.91
2022-08-26T07:17:04.424Z,100184.00
2022-08-26T07:19:31.981Z,100180.97
2022-08-26T07:22:07.268Z,100176.72
2022-08-26T07:24:39.152Z,100182.88
2022-08-26T07:27:09.275Z,100184.44
2022-08-26T07:29:39.241Z,100186.84
2022-08-26T07:32:07.105Z,100184.34
2022-08-26T07:34:34.799Z,100182.69
2022-08-26T07:37:02.909Z,100180.66
2022-08-26T07:39:37.367Z,100173.34
2022-08-26T07:42:08.173Z,100175.69
2022-08-26T07:44:37.898Z,100159.06
2022-08-26T07:47:10.083Z,100161.28
2022-08-26T07:49:38.509Z,100165.38
2022-08-26T07:52:07.450Z,100164.53
2022-08-26T07:54:34.505Z,100157.56
2022-08-26T07:57:05.080Z,100153.81
2022-08-26T07:59:36.347Z,100145.69
2022-08-26T08:02:03.497Z,100149.25
2022-08-26T08:04:30.493Z,100148.22
2022-08-26T08:06:58.496Z,100151.09
2022-08-26T08:09:29.028Z,100146.81
2022-08-26T08:11:56.353Z,100143.91
2022-08-26T08:14:23.964Z,100145.94
2022-08-26T08:16:54.624Z,100153.59
2022-08-26T08:19:36.550Z,100148.44
2022-08-26T08:22:17.809Z,100145.69
2022-08-26T08:24:49.966Z,100138.19
2022-08-26T08:27:23.851Z,100137.34
2022-08-26T08:29:58.042Z,100140.06
2022-08-26T08:32:25.705Z,100139.44
2022-08-26T08:34:53.003Z,100134.19
2022-08-26T08:37:20.042Z,100139.03
2022-08-26T08:39:48.976Z,100137.88
2022-08-26T08:42:19.454Z,100129.34
2022-08-26T08:44:53.306Z,100137.09
2022-08-26T08:47:24.019Z,100128.00
2022-08-26T08:49:54.052Z,100129.91
2022-08-26T08:52:35.803Z,100131.59
2022-08-26T08:55:09.494Z,100119.72
2022-08-26T08:58:02.201Z,100122.69
2022-08-26T09:00:57.059Z,100127.09
2022-08-26T09:03:43.312Z,100126.75
2022-08-26T09:06:18.771Z,100121.88
2022-08-26T09:08:50.482Z,100126.13
2022-08-26T09:11:20.080Z,100127.13
2022-08-26T09:13:54.973Z,100128.53
2022-08-26T09:16:43.286Z,100116.03
2022-08-26T09:19:33.627Z,100118.44
2022-08-26T09:22:07.009Z,100119.25
2022-08-26T09:24:41.934Z,100105.03
2022-08-26T09:27:42.000Z,100104.38
2022-08-26T09:30:14.380Z,100097.50
2022-08-26T09:32:55.770Z,100102.31
2022-08-26T09:35:25.250Z,100101.13
2022-08-26T09:37:57.616Z,100100.63
2022-08-26T09:40:35.838Z,100104.19
2022-08-26T09:43:22.375Z,100101.09
2022-08-26T09:45:59.446Z,100093.50
2022-08-26T09:48:27.225Z,100091.66
2022-08-26T09:50:58.454Z,100085.75
2022-08-26T09:53:35.063Z,100088.66
2022-08-26T09:59:31.357Z,100100.94
2022-08-26T10:02:18.620Z,100091.56
2022-08-26T10:04:55.415Z,100097.09
2022-08-26T10:07:56.153Z,100100.66
2022-08-26T10:10:35.676Z,100095.19
2022-08-26T10:13:12.620Z,100101.38
2022-08-26T10:16:04.069Z,100093.66
2022-08-26T10:18:39.980Z,100095.16
2022-08-26T10:21:21.166Z,100092.13
2022-08-26T10:23:55.563Z,100084.34
2022-08-26T10:26:22.598Z,100097.03
2022-08-26T10:29:19.933Z,100090.66
2022-08-26T10:32:02.696Z,100082.22
2022-08-26T10:34:33.523Z,100090.56
2022-08-26T10:37:16.074Z,100093.56
2022-08-26T10:39:47.013Z,100091.22
2022-08-26T10:42:45.577Z,100087.03
2022-08-26T10:45:39.063Z,100087.59
2022-08-26T10:48:11.255Z,100086.44
2022-08-26T10:50:47.607Z,100092.28
2022-08-26T10:53:24.891Z,100092.91
2022-08-26T10:56:18.887Z,100091.03
2022-08-26T10:59:03.976Z,100080.06
2022-08-26T11:01:47.048Z,100080.69
2022-08-26T11:04:52.967Z,100088.28
2022-08-26T11:07:53.644Z,100089.75
2022-08-26T11:10:27.134Z,100075.13
2022-08-26T11:13:04.692Z,100076.13
2022-08-26T11:15:32.343Z,100077.63
2022-08-26T11:18:10.709Z,100076.38
2022-08-26T11:20:41.596Z,100078.91
2022-08-26T11:23:27.279Z,100080.19
2022-08-26T11:26:08.702Z,100068.97
2022-08-26T11:28:48.465Z,100069.81
2022-08-26T11:31:25.751Z,100073.81
2022-08-26T11:34:08.766Z,100070.34
2022-08-26T11:36:47.309Z,100077.28
2022-08-26T11:39:24.702Z,100071.38
2022-08-26T11:42:00.128Z,100062.06
2022-08-26T11:44:46.741Z,100072.38
2022-08-26T11:47:25.384Z,100070.75
2022-08-26T11:50:07.995Z,100062.75
2022-08-26T11:52:35.235Z,100060.00
2022-08-26T11:55:14.456Z,100057.56
2022-08-26T11:57:49.006Z,100063.47
2022-08-26T12:00:33.517Z,100058.81
2022-08-26T12:03:07.850Z,100055.91
2022-08-26T12:05:42.341Z,100052.94
2022-08-26T12:08:16.773Z,100048.72
2022-08-26T12:10:46.198Z,100061.81
2022-08-26T12:13:23.859Z,100047.69
2022-08-26T12:15:57.889Z,100053.41
2022-08-26T12:18:31.916Z,100048.38
2022-08-26T12:21:00.439Z,100046.88
2022-08-26T12:23:45.138Z,100040.75
2022-08-26T12:26:28.090Z,100041.16
2022-08-26T12:29:27.223Z,100048.38
2022-08-26T12:32:14.735Z,100035.50
2022-08-26T12:34:51.057Z,100041.00
2022-08-26T12:37:19.117Z,100034.84
2022-08-26T12:39:48.908Z,100038.84
2022-08-26T12:42:15.990Z,100038.41
2022-08-26T12:44:54.729Z,100032.31
2022-08-26T12:47:41.937Z,100033.13
2022-08-26T12:50:22.953Z,100039.50
2022-08-26T12:53:01.006Z,100036.50
2022-08-26T12:55:41.493Z,100037.38
2022-08-26T12:58:26.513Z,100042.03
2022-08-26T13:00:59.480Z,100045.41
2022-08-26T13:03:38.647Z,100041.78
2022-08-26T13:06:23.381Z,100048.78
2022-08-26T13:08:55.856Z,100039.50
2022-08-26T13:11:35.807Z,100041.38
2022-08-26T13:14:10.006Z,100035.50
2022-08-26T13:16:39.469Z,100042.47
2022-08-26T13:19:10.856Z,100039.50
2022-08-26T13:21:50.779Z,100035.69
2022-08-26T13:24:23.231Z,100035.03
2022-08-26T13:26:50.696Z,100037.78
2022-08-26T13:29:18.999Z,100034.00
2022-08-26T13:31:46.984Z,100036.94
2022-08-26T13:34:20.440Z,100035.50
2022-08-26T13:36:49.624Z,100032.72
2022-08-26T13:39:17.590Z,100033.53
2022-08-26T13:41:44.690Z,100037.97
2022-08-26T13:44:16.711Z,100036.91
2022-08-26T13:49:17.806Z,100038.59
2022-08-26T13:51:44.852Z,100040.91
2022-08-26T13:54:14.510Z,100040.69
2022-08-26T13:56:42.012Z,100032.03
2022-08-26T13:59:09.177Z,100037.31
2022-08-26T14:01:37.351Z,100033.94
2022-08-26T14:04:09.957Z,100034.97
2022-08-26T14:06:37.699Z,100044.69
2022-08-26T14:09:05.373Z,100030.56
2022-08-26T14:11:36.998Z,100039.22
2022-08-26T14:14:20.461Z,100038.34
2022-08-26T14:16:59.508Z,100034.13
2022-08-26T14:19:32.170Z,100037.47
2022-08-26T14:22:03.862Z,100039.81
2022-08-26T14:24:34.962Z,100030.28
2022-08-26T14:27:02.695Z,100028.78
2022-08-26T14:29:32.166Z,100034.69
2022-08-26T14:32:06.952Z,100041.44
2022-08-26T14:34:34.140Z,100032.13
2022-08-26T14:37:16.144Z,100029.59
2022-08-26T14:39:44.345Z,100039.94
2022-08-26T14:42:15.149Z,100041.84
2022-08-26T14:44:46.272Z,100038.22
2022-08-26T14:47:13.412Z,100041.19
2022-08-26T14:49:40.433Z,100044.75
2022-08-26T14:52:10.296Z,100040.69
2022-08-26T14:54:37.922Z,100049.34
2022-08-26T14:57:08.014Z,100044.25
2022-08-26T14:59:38.454Z,100047.63
2022-08-26T15:02:08.356Z,100038.31
2022-08-26T15:04:35.502Z,100041.69
2022-08-26T15:07:05.379Z,100045.47
2022-08-26T15:09:37.866Z,100038.50
2022-08-26T15:12:06.801Z,100040.97
2022-08-26T15:14:34.284Z,100040.28
2022-08-26T15:17:01.477Z,100046.38
2022-08-26T15:19:29.447Z,100042.75
2022-08-26T15:21:59.988Z,100052.59
2022-08-26T15:24:30.355Z,100048.94
2022-08-26T15:26:58.068Z,100049.69
2022-08-26T15:29:25.152Z,100053.16
2022-08-26T15:31:52.770Z,100048.59
2022-08-26T15:34:32.413Z,100045.09
2022-08-26T15:37:00.390Z,100045.16
2022-08-26T15:39:32.141Z,100053.19
2022-08-26T15:42:02.940Z,100052.31
2022-08-26T15:44:30.845Z,100064.81
2022-08-26T15:49:56.095Z,100065.91
2022-08-26T15:52:40.423Z,100061.84
2022-08-26T15:55:08.880Z,100063.50
2022-08-26T15:57:38.546Z,100058.66
2022-08-26T16:00:07.193Z,100058.91
2022-08-26T16:02:49.861Z,100057.75
2022-08-26T16:05:18.426Z,100048.63
2022-08-26T16:07:47.781Z,100055.28
2022-08-26T16:10:18.817Z,100049.34
2022-08-26T16:12:46.874Z,100052.22
2022-08-26T16:15:42.560Z,100056.56
2022-08-26T16:18:14.185Z,100059.25
2022-08-26T16:21:13.223Z,100055.19
2022-08-26T16:26:38.212Z,100064.19
2022-08-26T16:29:37.425Z,100066.13
2022-08-26T16:32:08.869Z,100058.47
2022-08-26T16:34:38.303Z,100068.88
2022-08-26T16:37:23.630Z,100069.59
2022-08-26T16:39:51.067Z,100065.16
2022-08-26T16:42:20.195Z,100074.88
2022-08-26T16:44:47.499Z,100067.41
2022-08-26T16:47:20.181Z,100072.88
2022-08-26T16:49:50.520Z,100072.91
2022-08-26T16:52:20.857Z,100076.09
2022-08-26T16:54:48.665Z,100076.28
2022-08-26T16:57:17.229Z,100075.78
2022-08-26T16:59:55.084Z,100080.88
2022-08-26T17:02:24.538Z,100078.50
2022-08-26T17:04:52.683Z,100081.22
2022-08-26T17:07:23.534Z,100084.44
2022-08-26T17:09:50.672Z,100077.31
2022-08-26T17:12:21.398Z,100084.28
2022-08-26T17:14:53.430Z,100088.53
2022-08-26T17:18:16.500Z,100089.56
2022-08-26T17:20:49.370Z,100089.72
2022-08-26T17:23:24.352Z,100091.25
2022-08-26T17:25:54.159Z,100087.69
2022-08-26T17:28:21.421Z,100094.31
2022-08-26T17:30:51.049Z,100095.16
2022-08-26T17:33:22.921Z,100094.31
2022-08-26T17:35:53.170Z,100095.66
2022-08-26T17:38:29.975Z,100098.06
2022-08-26T17:40:58.347Z,100099.22
2022-08-26T17:43:27.713Z,100106.72
2022-08-26T17:46:07.124Z,100101.44
2022-08-26T17:48:36.345Z,100107.91
2022-08-26T17:51:09.555Z,100103.84
2022-08-26T17:53:39.593Z,100109.44
2022-08-26T17:56:17.312Z,100111.31
2022-08-26T17:58:56.843Z,100111.66
2022-08-26T18:01:37.510Z,100116.75
2022-08-26T18:04:13.260Z,100118.28
2022-08-26T18:06:49.179Z,100117.38
2022-08-26T18:09:22.959Z,100117.34
2022-08-26T18:11:52.639Z,100120.88
2022-08-26T18:14:22.722Z,100123.13
2022-08-26T18:16:53.859Z,100126.22
2022-08-26T18:19:21.369Z,100124.88
2022-08-26T18:21:57.729Z,100122.19
2022-08-26T18:24:30.429Z,100128.31
2022-08-26T18:26:58.930Z,100128.47
2022-08-26T18:29:27.678Z,100136.28
2022-08-26T18:31:55.202Z,100131.72
2022-08-26T18:34:31.903Z,100125.25
2022-08-26T18:37:00.581Z,100126.59
2022-08-26T18:39:29.899Z,100131.19
2022-08-26T18:42:08.481Z,100125.59
2022-08-26T18:44:36.550Z,100134.75
2022-08-26T18:47:04.483Z,100132.19
2022-08-26T18:49:33.873Z,100130.16
2022-08-26T18:52:01.967Z,100137.09
2022-08-26T18:54:30.103Z,100134.72
2022-08-26T18:57:15.245Z,100138.13
2022-08-26T19:03:22.047Z,100130.94
2022-08-26T19:10:46.778Z,100128.53
2022-08-26T19:14:13.167Z,100128.53
2022-08-26T19:19:43.907Z,100139.00
2022-08-26T19:26:20.575Z,100134.66
2022-08-26T19:30:11.820Z,100136.34
2022-08-26T19:32:41.631Z,100140.16
2022-08-26T19:35:09.536Z,100134.03
2022-08-26T19:37:44.555Z,100130.63
2022-08-26T19:40:17.529Z,100124.66
2022-08-26T19:42:49.990Z,100125.31
2022-08-26T19:45:25.199Z,100115.09
2022-08-26T19:47:53.681Z,100123.41
2022-08-26T19:50:22.927Z,100120.03
2022-08-26T19:52:51.162Z,100122.34
2022-08-26T19:55:20.531Z,100126.00
2022-08-26T19:57:52.684Z,100122.56
2022-08-26T20:00:29.842Z,100121.81
2022-08-26T20:02:57.649Z,100113.59
2022-08-26T20:05:25.718Z,100125.06
2022-08-26T20:07:53.944Z,100123.13
2022-08-26T20:10:24.908Z,100128.34
2022-08-26T20:12:53.201Z,100128.25
2022-08-26T20:15:23.618Z,100125.63
2022-08-26T20:17:53.271Z,100119.66
2022-08-26T20:20:39.219Z,100124.69
2022-08-26T20:23:06.306Z,100123.97
2022-08-26T20:25:36.454Z,100117.16
2022-08-26T20:28:03.932Z,100118.19
2022-08-26T20:30:31.056Z,100119.31
2022-08-26T20:32:59.174Z,100133.06
2022-08-26T20:35:26.217Z,100121.81
2022-08-26T20:37:56.262Z,100128.13
2022-08-26T20:40:24.474Z,100120.75
2022-08-26T20:42:54.133Z,100119.50
2022-08-26T20:45:21.251Z,100126.22
2022-08-26T20:47:48.525Z,100134.78
2022-08-26T20:50:17.664Z,100130.16
2022-08-26T20:52:47.219Z,100133.47
2022-08-26T20:55:14.962Z,100135.75
2022-08-26T20:57:43.304Z,100127.81
2022-08-26T21:00:13.367Z,100131.25
2022-08-26T21:02:44.875Z,100133.47
2022-08-26T21:05:14.599Z,100128.19
2022-08-26T21:07:41.695Z,100129.94
2022-08-26T21:10:12.712Z,100126.09
2022-08-26T21:12:39.759Z,100120.44
2022-08-26T21:15:07.558Z,100116.88
2022-08-26T21:17:37.913Z,100125.41
2022-08-26T21:20:05.331Z,100121.59
2022-08-26T21:22:33.091Z,100132.13
2022-08-26T21:25:00.742Z,100123.72
2022-08-26T21:27:27.915Z,100116.06
2022-08-26T21:29:55.127Z,100113.38
2022-08-26T21:32:22.340Z,100108.50
2022-08-26T21:34:49.414Z,100114.78
2022-08-26T21:37:16.944Z,100108.69
2022-08-26T21:39:44.463Z,100120.47
2022-08-26T21:42:11.540Z,100118.06
2022-08-26T21:44:39.190Z,100108.69
2022-08-26T21:47:07.333Z,100113.50
2022-08-26T21:49:35.533Z,100109.09
2022-08-26T21:52:04.656Z,100106.13
2022-08-26T21:54:32.493Z,100118.66
2022-08-26T21:57:01.078Z,100118.34
2022-08-26T21:59:28.688Z,100114.09
2022-08-26T22:01:57.162Z,100118.19
2022-08-26T22:04:48.106Z,100122.31
2022-08-26T22:07:31.747Z,100117.91
2022-08-26T22:09:59.139Z,100115.38
2022-08-26T22:12:26.192Z,100113.06
2022-08-26T22:14:54.713Z,100113.06
2022-08-26T22:17:22.906Z,100114.09
2022-08-26T22:19:50.569Z,100112.50
2022-08-26T22:22:18.937Z,100121.75
2022-08-26T22:24:54.710Z,100101.72
2022-08-26T22:27:21.715Z,100104.44
2022-08-26T22:29:50.508Z,100099.72
2022-08-26T22:32:18.765Z,100106.25
2022-08-26T22:34:45.781Z,100105.53
2022-08-26T22:37:13.852Z,100104.69
2022-08-26T22:39:41.079Z,100100.94
2022-08-26T22:42:08.112Z,100102.50
2022-08-26T22:44:36.990Z,100098.34
2022-08-26T22:47:04.217Z,100105.75
2022-08-26T22:49:31.844Z,100103.38
2022-08-26T22:51:59.172Z,100104.66
2022-08-26T22:54:26.271Z,100104.22
2022-08-26T22:56:53.554Z,100105.50
2022-08-26T22:59:20.770Z,100106.94
2022-08-26T23:01:48.078Z,100114.63
2022-08-26T23:04:15.541Z,100110.09
2022-08-26T23:06:47.277Z,100115.50
2022-08-26T23:09:18.247Z,100111.50
2022-08-26T23:11:47.481Z,100107.50
2022-08-26T23:14:15.810Z,100106.38
2022-08-26T23:16:42.876Z,100109.91
2022-08-26T23:19:12.438Z,100109.19
2022-08-26T23:21:40.198Z,100109.06
2022-08-26T23:24:09.890Z,100114.72
2022-08-26T23:26:38.730Z,100110.78
2022-08-26T23:29:07.737Z,100108.47
2022-08-26T23:31:36.584Z,100101.47
2022-08-26T23:34:22.717Z,100102.75
2022-08-26T23:36:52.764Z,100101.47
2022-08-26T23:39:25.605Z,100102.31
2022-08-26T23:41:52.639Z,100089.63
2022-08-26T23:44:20.815Z,100089.75
2022-08-26T23:46:48.037Z,100095.16
2022-08-26T23:49:15.219Z,100093.47
2022-08-26T23:52:00.780Z,100088.50
2022-08-26T23:54:28.051Z,100090.34
2022-08-26T23:56:55.111Z,100086.09
2022-08-26T23:59:22.121Z,100090.94
